Terminal Aerodrome Forecast
Issued by NWS Louisville, KY

Home | Current Version | Previous Version | Text Only | Print | Product List | Glossary On
Versions: 1 2 3 4 5 6 7 8 9 10 11 12 13 14 15
731
FTUS43 KLMK 191740
TAFLEX
TAF
KLEX 191740Z 1918/2018 22013G19KT P6SM -SHRA BKN025
      TEMPO 1918/1922 1SM SHRA BKN015
     FM192200 23011KT P6SM SCT030
     FM192300 23008KT P6SM SKC
     FM200100 21006KT P6SM FEW035
     FM200200 VRB04KT P6SM SCT035=

USA.gov is the U.S. government's official web portal to all federal, state and local government web resources and services.